METAR Data
IDs: Format: Raw Decoded Include TAF

Data at: 0311 UTC 05 Jun 2020

KOZS 050255Z AUTO 14004KT 10SM CLR 22/20 A2985 RMK AO2
KOZS 050235Z AUTO 12004KT 10SM CLR 23/20 A2984 RMK AO2
KOZS 050215Z AUTO 13005KT 10SM CLR 23/20 A2983 RMK AO2
KOZS 050155Z AUTO 11005KT 10SM CLR 23/20 A2982 RMK AO2
KOZS 050135Z AUTO 11005KT 10SM CLR 24/20 A2982 RMK AO2
KOZS 050115Z AUTO 10004KT 10SM CLR 25/20 A2982 RMK AO2
KOZS 050055Z AUTO 10004KT 10SM CLR 26/20 A2983 RMK AO2
KOZS 050035Z AUTO 10004KT 10SM CLR 27/20 A2983 RMK AO2
KOZS 050015Z AUTO 11003KT 10SM CLR 27/20 A2982 RMK AO2
KOZS 042355Z AUTO 13004KT 10SM CLR 27/20 A2982 RMK AO2
KOZS 042335Z AUTO 16003KT 10SM SCT042 28/19 A2982 RMK AO2
KOZS 042315Z AUTO 00000KT 10SM SCT042 27/20 A2982 RMK AO2
KOZS 042255Z AUTO 00000KT 10SM CLR 27/19 A2983 RMK AO2
KOZS 042235Z AUTO 15004KT 10SM CLR 28/19 A2983 RMK AO2
KOZS 042215Z AUTO 00000KT 10SM SCT034 28/19 A2983 RMK AO2
KOZS 042155Z AUTO 09005KT 10SM BKN034 28/20 A2983 RMK AO2
KOZS 042135Z AUTO 00000KT 10SM SCT036 SCT042 28/18 A2984 RMK AO2
KOZS 042115Z AUTO 00000KT 10SM BKN038 27/18 A2984 RMK AO2
KOZS 042055Z AUTO 11003KT 10SM BKN038 27/18 A2984 RMK AO2
KOZS 042035Z AUTO 12003KT 10SM BKN038 27/18 A2985 RMK AO2
KOZS 042015Z AUTO 00000KT 10SM CLR 27/18 A2985 RMK AO2
KOZS 041955Z AUTO 00000KT 10SM CLR 27/18 A2985 RMK AO2
KOZS 041935Z AUTO 08005KT 10SM CLR 27/18 A2985 RMK AO2
KOZS 041915Z AUTO 11004KT 10SM CLR 26/18 A2986 RMK AO2
KOZS 041855Z AUTO 09006KT 10SM CLR 27/18 A2986 RMK AO2
KOZS 041835Z AUTO 12004KT 10SM CLR 26/17 A2987 RMK AO2
KOZS 041815Z AUTO 09004KT 10SM CLR 25/17 A2987 RMK AO2
KOZS 041755Z AUTO 07003KT 10SM CLR 25/17 A2988 RMK AO2
KOZS 041735Z AUTO 00000KT 10SM CLR 25/17 A2988 RMK AO2
KOZS 041715Z AUTO 12004KT 10SM CLR 25/17 A2988 RMK AO2
KOZS 041635Z AUTO 12003KT 10SM CLR 23/16 A2987 RMK AO2
KOZS 041615Z AUTO 17004KT 10SM CLR 22/17 A2987 RMK AO2
KOZS 041555Z AUTO 24004KT 10SM CLR 22/16 A2986 RMK AO2
KOZS 041535Z AUTO 23007KT 10SM CLR 22/16 A2985 RMK AO2
KOZS 041515Z AUTO 25011G15KT 10SM CLR 21/17 A2985 RMK AO2
KOZS 041455Z AUTO 24014G19KT 10SM CLR 20/17 A2984 RMK AO2
KOZS 041435Z AUTO 23012G16KT 10SM CLR 20/17 A2982 RMK AO2
KOZS 041415Z AUTO 23011KT 10SM CLR 19/17 A2982 RMK AO2
KOZS 041355Z AUTO 24007KT 10SM CLR 19/17 A2982 RMK AO2
KOZS 041335Z AUTO 28008KT 10SM CLR 18/17 A2982 RMK AO2
KOZS 041315Z AUTO 28007G10KT 10SM CLR 18/17 A2980 RMK AO2
KOZS 041255Z AUTO 12006KT 10SM SCT035 SCT047 SCT065 18/16 A2977 RMK AO2 LTG DSNT SW P0003
KOZS 041235Z AUTO 08012G18KT 10SM -RA SCT070 BKN100 OVC120 17/17 A2975 RMK AO2 P0003
KOZS 041215Z AUTO 09005KT 10SM -RA OVC110 17/17 A2986 RMK AO2 P0002
KOZS 041155Z AUTO 31003KT 10SM RA OVC110 18/17 A2990 RMK AO2 P0014
KOZS 041135Z AUTO 30006KT 7SM RA SCT075 OVC100 18/17 A2992 RMK AO2 LTG DSNT E P0011
KOZS 041115Z AUTO 29011G23KT 7SM RA SCT009 SCT027 OVC090 18/17 A2996 RMK AO2 LTG DSNT W P0005
KOZS 041055Z AUTO 29017G32KT 7SM RA BKN005 BKN024 OVC080 18/17 A2997 RMK AO2 LTG DSNT E AND S P0034
KOZS 041035Z AUTO 31020G25KT 5SM +RA BKN007 BKN015 OVC022 18/18 A2992 RMK AO2 LTG DSNT SE AND SW P0028
KOZS 041015Z AUTO 30012KT 3SM +RA SCT004 BKN013 OVC110 19/18 A2991 RMK AO2 LTG DSNT SE AND W P0020
KOZS 040955Z AUTO 27011G18KT 140V080 10SM TS SCT006 SCT043 BKN110 18/18 A2990 RMK AO2 LTG DSNT SW AND W P0003
KOZS 040935Z AUTO 11012KT 10SM -RA SCT006 SCT043 OVC110 18/17 A2981 RMK AO2 LTG DSNT S THRU W P0003
KOZS 040915Z AUTO 14011KT 10SM -TSRA BKN110 18/17 A2983 RMK AO2 LTG DSNT ALQS P0001
KOZS 040855Z AUTO 09006KT 10SM -TSRA SCT011 SCT085 OVC110 18/17 A2984 RMK AO2 LTG DSNT S THRU NW P0005
KOZS 040835Z AUTO 36003KT 7SM TSRA OVC095 18/17 A2987 RMK AO2 LTG DSNT ALQS P0003
KOZS 040815Z AUTO 02004KT 10SM -VCTSRA BKN095 OVC110 18/17 A2986 RMK AO2 LTG DSNT ALQS
KOZS 040755Z AUTO 11003KT 7SM RA SCT065 BKN075 OVC085 18/17 A2985 RMK AO2 LTG DSNT ALQS P0007
KOZS 040735Z AUTO 15008KT 10SM -RA OVC065 18/17 A2985 RMK AO2 LTG DSNT W THRU E P0002
KOZS 040715Z AUTO 10008KT 10SM -RA OVC065 18/17 A2987 RMK AO2 LTG DSNT ALQS P0001
KOZS 040655Z AUTO 07010G21KT 7SM -VCTSRA SCT013 SCT022 OVC070 18/17 A2988 RMK AO2 LTG DSNT ALQS P0046
KOZS 040635Z AUTO 03011G21KT 360V060 1 3/4SM +VCTSRA SCT005 BKN017 OVC024 18/17 A2991 RMK AO2 LTG DSNT NW THRU E P0037
KOZS 040615Z AUTO 34013G18KT 10SM VCTS SCT017 OVC022 20/15 A2992 RMK AO2 LTG DSNT NW THRU E
KOZS 040555Z AUTO 05012G16KT 10SM SCT007 BKN022 OVC042 19/16 A2988 RMK AO2 LTG DSNT N AND NE
KOZS 040535Z AUTO 36009KT 10SM VCTS BKN024 OVC043 22/16 A2989 RMK AO2 LTG DSNT NW THRU E
KOZS 040515Z AUTO 07004KT 10SM BKN024 OVC043 22/16 A2987 RMK AO2 LTG DSNT NE
KOZS 040455Z AUTO 08004KT 10SM BKN022 BKN045 OVC100 23/17 A2987 RMK AO2 LTG DSNT N AND E
KOZS 040435Z AUTO 00000KT 10SM SCT018 SCT044 OVC090 23/20 A2986 RMK AO2 LTG DSNT N THRU E
KOZS 040415Z AUTO 05009KT 10SM BKN090 23/20 A2987 RMK AO2 LTG DSNT N AND NE
KOZS 040355Z AUTO 20007KT 10SM SCT090 24/20 A2984 RMK AO2 LTG DSNT N AND NE
KOZS 040335Z AUTO 17006KT 10SM OVC090 23/20 A2984 RMK AO2 LTG DSNT N AND NE
KOZS 040315Z AUTO 16005KT 10SM SCT090 25/20 A2985 RMK AO2 LTG DSNT NE
KOZS 040255Z AUTO 18004KT 10SM CLR 25/20 A2985 RMK AO2 LTG DSNT N AND NE
KOZS 040235Z AUTO 18004KT 10SM CLR 25/20 A2984 RMK AO2
KOZS 040215Z AUTO 18008KT 10SM CLR 26/20 A2983 RMK AO2 LTG DSNT N AND NE
KOZS 040155Z AUTO 17006KT 10SM CLR 26/20 A2983 RMK AO2 LTG DSNT N AND NE
KOZS 040135Z AUTO 17006KT 10SM CLR 27/21 A2983 RMK AO2 LTG DSNT NE
KOZS 040115Z AUTO 18005KT 10SM SCT047 SCT050 28/21 A2984 RMK AO2 LTG DSNT N
KOZS 040055Z AUTO 17005KT 10SM SCT045 28/20 A2985 RMK AO2
KOZS 040035Z AUTO 19005KT 10SM CLR 29/20 A2984 RMK AO2
KOZS 040015Z AUTO 17006KT 10SM CLR 30/20 A2984 RMK AO2
KOZS 032355Z AUTO 20004KT 10SM CLR 30/20 A2984 RMK AO2
KOZS 032335Z AUTO 21007KT 10SM CLR 30/20 A2984 RMK AO2 LTG DSNT NE
KOZS 032315Z AUTO 22005KT 10SM SCT042 SCT055 30/20 A2983 RMK AO2
KOZS 032255Z AUTO 23009KT 10SM SCT042 SCT055 31/20 A2984 RMK AO2
KOZS 032235Z AUTO 23009KT 10SM SCT055 31/19 A2984 RMK AO2
KOZS 032215Z AUTO 22008KT 10SM SCT043 SCT060 31/20 A2985 RMK AO2
KOZS 032155Z AUTO 21007G14KT 10SM SCT043 SCT060 SCT075 32/19 A2985 RMK AO2 LTG DSNT NE
KOZS 032135Z AUTO 23008KT 10SM SCT060 SCT075 31/20 A2985 RMK AO2 LTG DSNT SE
KOZS 032115Z AUTO 23006KT 10SM SCT041 SCT047 SCT060 31/20 A2985 RMK AO2 LTG DSNT NE AND S
KOZS 032055Z AUTO 21006KT 10SM SCT041 SCT060 31/20 A2986 RMK AO2
KOZS 032035Z AUTO 23008KT 10SM SCT041 31/20 A2987 RMK AO2
KOZS 032015Z AUTO 24006KT 10SM SCT040 31/20 A2987 RMK AO2 LTG DSNT SE
KOZS 031955Z AUTO 18006KT 10SM SCT040 31/20 A2987 RMK AO2 LTG DSNT S
KOZS 031935Z AUTO 25005KT 10SM CLR 31/19 A2988 RMK AO2
KOZS 031915Z AUTO 23008KT 10SM CLR 30/20 A2990 RMK AO2 LTG DSNT SE
KOZS 031855Z AUTO 22007KT 10SM CLR 31/20 A2991 RMK AO2
KOZS 031835Z AUTO 22006KT 10SM CLR 30/20 A2992 RMK AO2 LTG DSNT S
KOZS 031815Z AUTO 26008KT 10SM SCT065 30/20 A2992 RMK AO2
KOZS 031755Z AUTO 23011G14KT 10SM CLR 30/20 A2993 RMK AO2
KOZS 031735Z AUTO 21008KT 10SM CLR 30/20 A2994 RMK AO2
KOZS 031715Z AUTO 24008G17KT 10SM SCT065 SCT080 29/20 A2994 RMK AO2
KOZS 031655Z AUTO 23011G18KT 10SM SCT065 29/20 A2994 RMK AO2
KOZS 031635Z AUTO 24012G16KT 10SM SCT065 29/20 A2994 RMK AO2
KOZS 031615Z AUTO 23015G18KT 10SM CLR 28/20 A2995 RMK AO2
KOZS 031555Z AUTO 23012G16KT 10SM CLR 27/20 A2995 RMK AO2
KOZS 031535Z AUTO 23011G15KT 10SM SCT070 27/20 A2996 RMK AO2
KOZS 031515Z AUTO 21011KT 10SM SCT060 SCT070 27/20 A2996 RMK AO2